Altmar, New York
Current Conditions -  °F | °C
As of 2:54 AM on Saturday 01 Nov 2014 (Local Time) from KFZY Reporting Station
Overcast Overcast  
Wind Chill: 36°   Ceiling: 8500
Heat Index: 42°   Visibility: 10mi
Dew Point: 35°   Wind: 10mph
Humidity: 76%   Direction: 10°N
Pressure: 29.97"   Gusts: NA
Location:  43.51°N, 76°W
Report Text: KFZY 010654Z AUTO 01009KT 10SM FEW042 OVC085 06/02 A2997 RMK AO2 SLP151 T00560017
Loading
Personal Weather Stations






























Interactive Weather Map
Tropical Storm Tracking
New forecast layout! Learn more

10-Day Weather Forecast

Advertisements
Track Severe Weather on mobile